createdAt,value
2023-04-06T04:02:12.046Z,13.97
2023-04-06T04:04:44.152Z,13.37
2023-04-06T04:07:16.247Z,14.33
2023-04-06T04:09:48.307Z,13.30
2023-04-06T04:12:20.338Z,13.03
2023-04-06T04:14:52.372Z,15.00
2023-04-06T04:17:25.999Z,13.50
2023-04-06T04:19:58.052Z,16.10
2023-04-06T04:22:30.077Z,11.90
2023-04-06T04:25:02.127Z,15.10
2023-04-06T04:27:34.160Z,14.63
2023-04-06T04:30:06.938Z,19.33
2023-04-06T04:32:40.363Z,12.50
2023-04-06T04:35:12.403Z,14.97
2023-04-06T04:37:44.412Z,13.27
2023-04-06T04:40:16.455Z,14.33
2023-04-06T04:42:48.471Z,14.73
2023-04-06T04:45:20.509Z,11.40
2023-04-06T04:47:53.861Z,14.67
2023-04-06T04:50:25.951Z,12.60
2023-04-06T04:52:57.966Z,14.03
2023-04-06T04:55:29.981Z,11.83
2023-04-06T04:58:01.617Z,14.70
2023-04-06T05:00:33.322Z,16.03
2023-04-06T05:03:06.475Z,17.37
2023-04-06T05:05:39.649Z,10.70
2023-04-06T05:08:11.672Z,14.03
2023-04-06T05:10:43.398Z,11.87
2023-04-06T05:13:15.052Z,11.90
2023-04-06T05:15:46.769Z,15.13
2023-04-06T05:18:19.821Z,11.23
2023-04-06T05:20:51.482Z,9.57
2023-04-06T05:23:23.119Z,12.77
2023-04-06T05:25:54.808Z,17.73
2023-04-06T05:28:26.503Z,9.50
2023-04-06T05:30:58.332Z,10.00
2023-04-06T05:33:31.373Z,11.27
2023-04-06T05:36:03.091Z,11.63
2023-04-06T05:38:34.759Z,13.70
2023-04-06T05:41:06.802Z,14.33
2023-04-06T05:43:38.814Z,14.63
2023-04-06T05:46:10.872Z,12.17
2023-04-06T05:48:44.244Z,10.97
2023-04-06T05:51:16.284Z,14.87
2023-04-06T05:53:48.364Z,11.10
2023-04-06T05:56:20.391Z,8.40
2023-04-06T05:58:52.071Z,10.48
2023-04-06T06:01:23.775Z,8.32
2023-04-06T06:03:56.792Z,8.35
2023-04-06T06:06:28.775Z,8.07
2023-04-06T06:09:00.818Z,11.38
2023-04-06T06:11:32.839Z,11.65
2023-04-06T06:14:04.895Z,10.45
2023-04-06T06:16:37.016Z,12.18
2023-04-06T06:19:10.440Z,11.85
2023-04-06T06:21:42.455Z,10.20
2023-04-06T06:24:14.491Z,8.90
2023-04-06T06:26:46.554Z,9.05
2023-04-06T06:29:18.605Z,10.80
2023-04-06T06:31:50.746Z,8.32
2023-04-06T06:34:23.920Z,9.57
2023-04-06T06:36:55.863Z,8.30
2023-04-06T06:39:27.763Z,9.38
2023-04-06T06:41:59.458Z,9.68
2023-04-06T06:44:31.404Z,8.98
2023-04-06T06:47:03.160Z,7.50
2023-04-06T06:49:36.294Z,10.32
2023-04-06T06:52:08.007Z,10.70
2023-04-06T06:54:39.698Z,11.30
2023-04-06T06:57:11.349Z,7.82
2023-04-06T06:59:43.072Z,11.23
2023-04-06T07:02:14.966Z,10.95
2023-04-06T07:04:50.208Z,11.13
2023-04-06T07:07:21.972Z,10.20
2023-04-06T07:09:53.664Z,15.77
2023-04-06T07:12:25.392Z,11.13
2023-04-06T07:14:57.118Z,9.48
2023-04-06T07:17:28.823Z,11.68
2023-04-06T07:20:02.154Z,10.40
2023-04-06T07:22:33.846Z,11.88
2023-04-06T07:25:06.455Z,11.70
2023-04-06T07:27:38.189Z,9.13
2023-04-06T07:30:10.367Z,7.80
2023-04-06T07:32:42.109Z,8.70
2023-04-06T07:35:15.471Z,9.82
2023-04-06T07:37:47.238Z,9.38
2023-04-06T07:40:18.976Z,9.50
2023-04-06T07:42:50.674Z,10.20
2023-04-06T07:45:22.341Z,12.70
2023-04-06T07:47:54.092Z,12.02
2023-04-06T07:50:27.149Z,10.43
2023-04-06T07:52:58.793Z,10.13
2023-04-06T07:55:30.556Z,10.70
2023-04-06T07:58:02.238Z,11.52
2023-04-06T08:00:33.897Z,10.18
2023-04-06T08:03:05.632Z,10.38
2023-04-06T08:05:38.712Z,11.77
2023-04-06T08:08:10.358Z,9.23
2023-04-06T08:10:42.064Z,12.77
2023-04-06T08:13:13.726Z,13.80
2023-04-06T08:15:45.501Z,13.43
2023-04-06T08:18:17.178Z,12.10
2023-04-06T08:20:50.210Z,12.85
2023-04-06T08:23:21.865Z,11.95
2023-04-06T08:25:53.563Z,14.35
2023-04-06T08:28:25.258Z,13.88
2023-04-06T08:30:57.005Z,12.90
2023-04-06T08:33:28.691Z,11.07
2023-04-06T08:36:07.166Z,12.82
2023-04-06T08:38:38.870Z,13.80
2023-04-06T08:41:10.653Z,15.00
2023-04-06T08:43:44.125Z,15.32
2023-04-06T08:46:15.953Z,12.20
2023-04-06T08:48:47.640Z,15.18
2023-04-06T08:51:20.670Z,15.18
2023-04-06T08:53:52.360Z,17.05
2023-04-06T08:56:24.119Z,16.08
2023-04-06T08:58:56.254Z,17.05
2023-04-06T09:01:28.561Z,13.75
2023-04-06T09:04:00.916Z,11.85
2023-04-06T09:06:34.105Z,16.17
2023-04-06T09:09:05.780Z,14.18
2023-04-06T09:11:44.842Z,19.90
2023-04-06T09:14:16.548Z,14.35
2023-04-06T09:16:48.263Z,13.63
2023-04-06T09:19:19.932Z,14.13
2023-04-06T09:22:01.762Z,11.95
2023-04-06T09:24:42.083Z,17.10
2023-04-06T09:27:13.901Z,15.40
2023-04-06T09:29:45.650Z,13.70
2023-04-06T09:32:17.312Z,14.93
2023-04-06T09:34:50.684Z,14.52
2023-04-06T09:37:24.091Z,13.80
2023-04-06T09:40:03.316Z,16.80
2023-04-06T09:42:35.067Z,15.02
2023-04-06T09:45:07.845Z,16.13
2023-04-06T09:47:40.393Z,18.42
2023-04-06T09:50:12.933Z,18.15
2023-04-06T09:52:48.006Z,16.05
2023-04-06T09:55:23.632Z,13.32
2023-04-06T09:57:58.683Z,14.55
2023-04-06T10:00:30.350Z,13.45
2023-04-06T10:03:07.088Z,18.88
2023-04-06T10:05:44.884Z,16.35
2023-04-06T10:08:17.921Z,13.95
2023-04-06T10:10:50.099Z,15.02
2023-04-06T10:13:21.799Z,17.55
2023-04-06T10:15:53.591Z,19.48
2023-04-06T10:18:25.278Z,17.92
2023-04-06T10:20:58.528Z,13.73
2023-04-06T10:23:33.651Z,16.05
2023-04-06T10:26:05.380Z,14.27
2023-04-06T10:28:37.196Z,17.02
2023-04-06T10:31:08.961Z,17.48
2023-04-06T10:33:40.621Z,14.60
2023-04-06T10:36:12.879Z,17.50
2023-04-06T10:38:45.909Z,16.88
2023-04-06T10:41:18.247Z,18.00
2023-04-06T10:43:55.890Z,14.82
2023-04-06T10:46:28.288Z,16.75
2023-04-06T10:49:10.605Z,16.20
2023-04-06T10:51:42.313Z,16.05
2023-04-06T10:54:15.309Z,15.20
2023-04-06T10:56:46.994Z,14.77
2023-04-06T10:59:20.188Z,16.65
2023-04-06T11:01:51.950Z,16.15
2023-04-06T11:04:23.730Z,15.75
2023-04-06T11:06:55.428Z,18.27
2023-04-06T11:09:29.689Z,17.27
2023-04-06T11:12:01.419Z,19.85
2023-04-06T11:14:33.056Z,14.93
2023-04-06T11:17:04.803Z,21.05
2023-04-06T11:19:36.501Z,19.63
2023-04-06T11:22:08.743Z,20.00
2023-04-06T11:24:41.756Z,17.35
2023-04-06T11:27:13.446Z,21.50
2023-04-06T11:29:45.205Z,21.98
2023-04-06T11:32:22.938Z,19.83
2023-04-06T11:34:54.629Z,15.95
2023-04-06T11:37:27.378Z,17.65
2023-04-06T11:40:01.504Z,19.52
2023-04-06T11:42:33.149Z,23.10
2023-04-06T11:45:06.039Z,16.05
2023-04-06T11:47:38.280Z,17.90
2023-04-06T11:50:11.202Z,20.13
2023-04-06T11:52:42.968Z,18.40
2023-04-06T11:55:17.175Z,17.33
2023-04-06T11:57:48.823Z,16.75
2023-04-06T12:00:21.482Z,14.02
2023-04-06T12:02:53.216Z,14.20
2023-04-06T12:05:24.983Z,17.15
2023-04-06T12:07:57.510Z,17.17
2023-04-06T12:10:32.065Z,14.88
2023-04-06T12:13:05.638Z,18.08
2023-04-06T12:15:37.469Z,18.45
2023-04-06T12:18:09.178Z,17.73
2023-04-06T12:20:40.928Z,17.80
2023-04-06T12:23:12.565Z,14.13
2023-04-06T12:25:45.622Z,14.10
2023-04-06T12:28:17.523Z,20.35
2023-04-06T12:30:49.366Z,15.23
2023-04-06T12:33:21.110Z,14.30
2023-04-06T12:35:52.839Z,13.52
2023-04-06T12:38:24.567Z,14.95
2023-04-06T12:40:57.585Z,16.27
2023-04-06T12:43:29.267Z,16.08
2023-04-06T12:46:00.927Z,18.27
2023-04-06T12:48:32.614Z,20.60
2023-04-06T12:51:06.044Z,15.88
2023-04-06T12:53:37.743Z,25.75
2023-04-06T12:56:14.625Z,19.27
2023-04-06T12:58:46.510Z,23.40
2023-04-06T13:01:18.245Z,14.18
2023-04-06T13:03:50.136Z,16.20
2023-04-06T13:06:21.784Z,16.52
2023-04-06T13:08:53.471Z,18.90
2023-04-06T13:11:28.241Z,15.45
2023-04-06T13:14:00.372Z,17.80
2023-04-06T13:16:32.060Z,12.18
2023-04-06T13:19:03.830Z,9.45
2023-04-06T13:21:35.500Z,17.13
2023-04-06T13:24:07.431Z,10.27
2023-04-06T13:26:40.468Z,9.65
2023-04-06T13:29:12.158Z,24.77
2023-04-06T13:31:43.896Z,11.52
2023-04-06T13:34:15.676Z,14.18
2023-04-06T13:36:47.352Z,10.15
2023-04-06T13:39:19.049Z,8.68
2023-04-06T13:41:54.352Z,13.20
2023-04-06T13:44:26.043Z,12.55
2023-04-06T13:46:57.688Z,11.27
2023-04-06T13:49:29.398Z,11.35
2023-04-06T13:52:01.061Z,11.07
2023-04-06T13:54:32.757Z,12.88
2023-04-06T13:57:05.890Z,11.35
2023-04-06T13:59:37.627Z,10.82
2023-04-06T14:02:10.458Z,10.95
2023-04-06T14:04:42.182Z,12.57
2023-04-06T14:07:13.871Z,10.98
2023-04-06T14:09:45.623Z,11.00
2023-04-06T14:12:18.627Z,8.60
2023-04-06T14:14:50.395Z,15.98
2023-04-06T14:17:22.101Z,10.20
2023-04-06T14:19:53.837Z,9.98
2023-04-06T14:22:25.557Z,9.32
2023-04-06T14:24:57.253Z,10.88
2023-04-06T14:27:30.282Z,8.52
2023-04-06T14:30:01.947Z,10.18
2023-04-06T14:32:33.647Z,9.68
2023-04-06T14:35:07.145Z,10.18
2023-04-06T14:37:39.294Z,12.63
2023-04-06T14:40:11.716Z,11.98
2023-04-06T14:42:44.709Z,10.45
2023-04-06T14:45:16.491Z,10.48
2023-04-06T14:47:48.172Z,11.27
2023-04-06T14:50:19.870Z,7.63
2023-04-06T14:52:51.537Z,5.97
2023-04-06T14:55:23.199Z,7.13
2023-04-06T14:57:56.197Z,9.32
2023-04-06T15:00:27.966Z,7.28
2023-04-06T15:02:59.936Z,7.00
2023-04-06T15:05:32.140Z,8.93
2023-04-06T15:08:03.981Z,8.48
2023-04-06T15:10:35.681Z,7.93
2023-04-06T15:13:08.690Z,7.95
2023-04-06T15:15:41.557Z,7.28
2023-04-06T15:18:13.302Z,8.30
2023-04-06T15:20:45.008Z,7.10
2023-04-06T15:23:16.658Z,9.32
2023-04-06T15:25:48.322Z,7.75
2023-04-06T15:28:21.343Z,7.85
2023-04-06T15:30:53.960Z,11.60
2023-04-06T15:33:25.639Z,14.48
2023-04-06T15:35:57.367Z,14.10
2023-04-06T15:38:29.083Z,12.05
2023-04-06T15:41:00.762Z,13.02
2023-04-06T15:43:33.757Z,11.32
2023-04-06T15:48:37.109Z,14.27
2023-04-06T15:51:08.776Z,12.80
2023-04-06T15:53:40.431Z,14.88
2023-04-06T15:56:12.306Z,15.65
2023-04-06T15:58:45.448Z,15.80
2023-04-06T16:01:17.939Z,13.50
2023-04-06T16:03:49.755Z,12.60
2023-04-06T16:06:21.531Z,18.67
2023-04-06T16:08:53.253Z,13.23
2023-04-06T16:11:24.911Z,16.08
2023-04-06T16:13:58.225Z,21.73
2023-04-06T16:16:30.129Z,14.07
2023-04-06T16:19:01.936Z,28.73
2023-04-06T16:21:33.650Z,17.52
2023-04-06T16:24:05.661Z,20.33
2023-04-06T16:26:37.356Z,14.90
2023-04-06T16:29:10.412Z,14.35
2023-04-06T16:31:42.125Z,17.35
2023-04-06T16:34:13.964Z,17.20
2023-04-06T16:36:45.618Z,16.00
2023-04-06T16:39:17.335Z,19.50
2023-04-06T16:41:49.013Z,16.67
2023-04-06T16:44:22.042Z,15.85
2023-04-06T16:46:53.704Z,16.83
2023-04-06T16:49:25.390Z,12.40
2023-04-06T16:51:57.224Z,14.50
2023-04-06T16:54:28.916Z,14.60
2023-04-06T16:57:00.588Z,15.63
2023-04-06T16:59:33.640Z,12.37
2023-04-06T17:02:05.414Z,13.30
2023-04-06T17:04:37.162Z,15.13
2023-04-06T17:07:08.823Z,13.00
2023-04-06T17:09:40.529Z,12.38
2023-04-06T17:12:12.164Z,14.38
2023-04-06T17:14:45.276Z,12.30
2023-04-06T17:17:17.051Z,12.23
2023-04-06T17:19:48.832Z,11.45
2023-04-06T17:22:20.624Z,13.30
2023-04-06T17:24:52.506Z,11.80
2023-04-06T17:27:24.161Z,13.15
2023-04-06T17:29:57.256Z,14.93
2023-04-06T17:32:29.001Z,11.48
2023-04-06T17:35:00.674Z,14.52
2023-04-06T17:37:32.361Z,11.18
2023-04-06T17:40:04.958Z,14.55
2023-04-06T17:42:36.628Z,14.40
2023-04-06T17:45:10.058Z,11.15
2023-04-06T17:47:41.781Z,13.02
2023-04-06T17:50:13.482Z,13.40
2023-04-06T17:55:21.769Z,12.90
2023-04-06T17:57:53.433Z,12.73
2023-04-06T18:00:26.590Z,16.00
2023-04-06T18:02:58.355Z,19.13
2023-04-06T18:05:30.044Z,15.35
2023-04-06T18:08:01.727Z,16.00
2023-04-06T18:10:37.030Z,16.50
2023-04-06T18:13:08.694Z,14.65
2023-04-06T18:15:42.163Z,17.10
2023-04-06T18:18:14.196Z,15.67
2023-04-06T18:20:46.225Z,19.73
2023-04-06T18:23:18.224Z,16.87
2023-04-06T18:25:50.254Z,19.20
2023-04-06T18:28:22.267Z,19.83
2023-04-06T18:30:55.696Z,19.57
2023-04-06T18:33:27.735Z,14.87
2023-04-06T18:35:59.801Z,16.20
2023-04-06T18:38:31.459Z,18.20
2023-04-06T18:41:03.161Z,13.87
2023-04-06T18:43:35.009Z,13.20
2023-04-06T18:46:11.599Z,16.60
2023-04-06T18:48:43.318Z,12.67
2023-04-06T18:51:14.989Z,14.00
2023-04-06T18:53:46.651Z,17.30
2023-04-06T18:56:19.015Z,9.30
2023-04-06T18:58:50.996Z,9.00
2023-04-06T19:01:24.865Z,9.70
2023-04-06T19:03:57.206Z,16.90
2023-04-06T19:06:29.195Z,10.00
2023-04-06T19:09:00.845Z,10.33
2023-04-06T19:11:32.503Z,8.93
2023-04-06T19:14:04.205Z,7.55
2023-04-06T19:16:37.307Z,9.35
2023-04-06T19:19:09.023Z,10.20
2023-04-06T19:21:40.700Z,13.13
2023-04-06T19:24:12.363Z,12.10
2023-04-06T19:26:44.053Z,14.37
2023-04-06T19:29:15.754Z,12.77
2023-04-06T19:31:48.827Z,14.77
2023-04-06T19:34:20.519Z,12.57
2023-04-06T19:36:52.148Z,16.27
2023-04-06T19:39:23.837Z,15.27
2023-04-06T19:41:56.130Z,14.90
2023-04-06T19:44:27.853Z,15.80
2023-04-06T19:47:00.847Z,15.18
2023-04-06T19:49:32.497Z,14.93
2023-04-06T19:52:04.289Z,16.70
2023-04-06T19:54:36.109Z,14.75
2023-04-06T19:57:07.834Z,14.00
2023-04-06T19:59:39.497Z,17.60
2023-04-06T20:02:12.571Z,15.23
2023-04-06T20:04:44.364Z,14.18
2023-04-06T20:07:16.027Z,14.40
2023-04-06T20:09:47.683Z,14.00
2023-04-06T20:12:19.319Z,11.67
2023-04-06T20:14:51.134Z,13.17
2023-04-06T20:17:24.158Z,12.80
2023-04-06T20:19:56.018Z,14.32
2023-04-06T20:22:27.699Z,12.48
2023-04-06T20:24:59.373Z,12.67
2023-04-06T20:27:31.010Z,14.97
2023-04-06T20:30:02.726Z,15.50
2023-04-06T20:32:35.831Z,12.52
2023-04-06T20:35:08.208Z,10.70
2023-04-06T20:37:39.881Z,9.27
2023-04-06T20:40:12.256Z,10.70
2023-04-06T20:42:43.932Z,9.10
2023-04-06T20:45:15.651Z,11.38
2023-04-06T20:47:50.730Z,10.88
2023-04-06T20:50:22.547Z,11.38
2023-04-06T20:52:54.256Z,17.75
2023-04-06T20:55:25.958Z,11.02
2023-04-06T20:57:57.590Z,12.98
2023-04-06T21:00:29.255Z,12.93
2023-04-06T21:03:02.485Z,15.13
2023-04-06T21:05:34.303Z,14.48
2023-04-06T21:08:06.055Z,14.68
2023-04-06T21:10:37.999Z,17.00
2023-04-06T21:13:09.630Z,16.73
2023-04-06T21:15:41.344Z,18.33
2023-04-06T21:18:14.473Z,19.27
2023-04-06T21:20:46.209Z,14.30
2023-04-06T21:23:17.851Z,16.63
2023-04-06T21:25:49.605Z,17.23
2023-04-06T21:28:21.272Z,14.67
2023-04-06T21:30:53.061Z,15.10
2023-04-06T21:33:26.094Z,11.95
2023-04-06T21:35:57.757Z,13.30
2023-04-06T21:38:29.411Z,12.35
2023-04-06T21:41:01.133Z,12.60
2023-04-06T21:43:32.789Z,16.83
2023-04-06T21:46:04.533Z,13.80
2023-04-06T21:48:37.530Z,13.60
2023-04-06T21:51:09.221Z,12.63
2023-04-06T21:53:40.871Z,12.00
2023-04-06T21:56:12.730Z,14.87
2023-04-06T21:58:44.421Z,10.88
